Time;durP1;ratioP1;P1;durP2;ratioP2;P2;SDS_P1;SDS_P2;PMS_P1;PMS_P2;Temp;Humidity;BMP_temperature;BMP_pressure;BME280_temperature;BME280_humidity;BME280_pressure;Samples;Min_cycle;Max_cycle;Signal;HPM_P1;HPM_P2
2024/01/17 00:01:05;;;;;;;12.90;4.70;;;;;;;-1.70;71.31;97380.38;5301897;27;20065;-77
2024/01/17 00:03:33;;;;;;;12.55;3.97;;;;;;;-2.48;74.05;97385.69;5302358;27;20049;-76
2024/01/17 00:06:01;;;;;;;11.90;4.40;;;;;;;-2.71;74.09;97373.13;5302051;27;20541;-76
2024/01/17 00:08:30;;;;;;;11.52;4.18;;;;;;;-2.30;72.71;97374.72;5301917;27;20115;-77
2024/01/17 00:11:00;;;;;;;11.73;4.35;;;;;;;-2.34;72.26;97368.81;5302113;27;20068;-77
2024/01/17 00:13:29;;;;;;;11.60;4.43;;;;;;;-2.63;72.17;97364.69;5302087;27;20068;-76
2024/01/17 00:15:57;;;;;;;12.20;4.40;;;;;;;-2.57;72.85;97368.88;5301612;27;20055;-76
2024/01/17 00:18:25;;;;;;;12.00;4.20;;;;;;;-2.85;75.62;97369.78;5302342;27;20087;-76
2024/01/17 00:20:53;;;;;;;14.18;5.60;;;;;;;-3.01;78.14;97363.87;5302161;27;20127;-76
2024/01/17 00:23:22;;;;;;;13.07;5.03;;;;;;;-2.76;78.27;97365.56;5302184;27;20072;-77
2024/01/17 00:25:52;;;;;;;14.20;5.68;;;;;;;-3.13;81.56;97358.81;5302058;27;20053;-76
2024/01/17 00:28:21;;;;;;;16.02;6.57;;;;;;;-2.56;80.61;97355.41;5282727;27;20072;-77
2024/01/17 00:30:49;;;;;;;15.75;5.62;;;;;;;-3.57;85.93;97344.50;5302091;27;20472;-77
2024/01/17 00:33:17;;;;;;;17.40;6.28;;;;;;;-2.55;81.11;97343.59;5302181;27;20049;-77
2024/01/17 00:35:46;;;;;;;17.55;5.82;;;;;;;-3.18;82.47;97342.88;5301561;27;20044;-77
2024/01/17 00:38:15;;;;;;;16.17;5.20;;;;;;;-2.62;78.35;97343.63;5302224;27;20427;-77
2024/01/17 00:40:42;;;;;;;13.98;5.18;;;;;;;-3.07;79.06;97334.44;5301446;27;20058;-76
2024/01/17 00:43:11;;;;;;;14.70;4.87;;;;;;;-3.20;79.31;97332.75;5301545;27;20056;-77
2024/01/17 00:45:38;;;;;;;17.40;6.70;;;;;;;-2.67;78.10;97336.91;5301994;27;20108;-76
2024/01/17 00:48:06;;;;;;;19.33;7.07;;;;;;;-2.70;77.96;97336.91;5302239;27;20072;-76
2024/01/17 00:50:36;;;;;;;24.30;9.60;;;;;;;-3.19;81.07;97326.84;5301341;27;20059;-77
2024/01/17 00:53:05;;;;;;;18.15;7.28;;;;;;;-3.55;85.96;97326.00;5302126;27;20118;-77
2024/01/17 00:55:33;;;;;;;18.35;6.45;;;;;;;-2.93;81.07;97325.16;5282481;27;20073;-76
2024/01/17 00:58:00;;;;;;;21.55;7.50;;;;;;;-3.47;81.73;97318.47;5264510;27;20069;-76
2024/01/17 01:00:28;;;;;;;28.30;11.07;;;;;;;-3.35;81.74;97326.03;5301969;27;20420;-76
2024/01/17 01:02:56;;;;;;;26.00;10.55;;;;;;;-3.37;84.40;97340.31;5301970;27;20052;-76
2024/01/17 01:05:26;;;;;;;22.52;8.85;;;;;;;-3.04;82.31;97341.16;5301552;27;20059;-76
2024/01/17 01:07:55;;;;;;;26.50;10.30;;;;;;;-3.36;82.28;97341.16;5302124;27;20107;-76
2024/01/17 01:10:24;;;;;;;48.13;13.70;;;;;;;-3.31;82.98;97345.34;5301507;27;20582;-76
2024/01/17 01:12:53;;;;;;;78.10;15.13;;;;;;;-3.34;85.83;97344.53;5301952;27;20057;-76
2024/01/17 01:15:22;;;;;;;54.30;15.77;;;;;;;-4.05;91.82;97350.25;5301516;27;20467;-76
2024/01/17 01:17:51;;;;;;;58.78;14.75;;;;;;;-3.09;89.01;97346.19;5301524;27;20065;-77
2024/01/17 01:20:19;;;;;;;180.23;20.25;;;;;;;-2.69;85.00;97343.63;5301976;27;20108;-76
2024/01/17 01:22:48;;;;;;;136.02;18.40;;;;;;;-2.11;83.23;97344.34;5302018;27;20049;-76
2024/01/17 01:25:16;;;;;;;164.55;19.98;;;;;;;-2.43;85.02;97339.38;5301286;27;20053;-76
2024/01/17 01:27:45;;;;;;;97.28;17.05;;;;;;;-2.79;86.16;97325.13;5301524;27;20131;-76
2024/01/17 01:30:15;;;;;;;89.82;17.95;;;;;;;-3.28;87.61;97312.59;5301721;27;20443;-77
2024/01/17 01:32:44;;;;;;;99.93;16.85;;;;;;;-2.88;85.89;97322.62;5301394;27;20084;-77
2024/01/17 01:35:13;;;;;;;78.00;16.37;;;;;;;-3.03;85.79;97323.50;5301666;27;20049;-76
2024/01/17 01:37:42;;;;;;;88.35;14.95;;;;;;;-2.50;83.81;97322.56;5301803;27;20419;-76
2024/01/17 01:40:12;;;;;;;112.25;14.48;;;;;;;-3.06;84.07;97325.19;5301145;27;20177;-76
2024/01/17 01:42:43;;;;;;;118.95;16.10;;;;;;;-3.02;85.04;97315.06;5301762;27;20430;-76
2024/01/17 01:45:12;;;;;;;144.20;15.35;;;;;;;-3.67;90.51;97330.19;5301416;27;20076;-77
2024/01/17 01:47:41;;;;;;;113.50;15.98;;;;;;;-4.22;94.39;97325.00;5301571;27;20061;-76
2024/01/17 01:50:09;;;;;;;115.93;14.18;;;;;;;-4.06;97.06;97324.22;5282039;27;20065;-76
2024/01/17 01:52:38;;;;;;;125.07;16.23;;;;;;;-3.69;94.29;97321.78;5301797;27;20144;-77
2024/01/17 01:55:07;;;;;;;114.80;15.98;;;;;;;-3.15;90.58;97317.63;5283367;27;20073;-76
2024/01/17 01:57:37;;;;;;;100.55;15.48;;;;;;;-2.99;89.70;97316.75;5302581;27;20064;-76
2024/01/17 02:00:06;;;;;;;97.43;15.38;;;;;;;-2.70;87.75;97314.19;5283115;27;20107;-76
2024/01/17 02:02:34;;;;;;;69.95;14.82;;;;;;;-2.48;87.14;97313.28;5283345;27;20052;-77
2024/01/17 02:05:04;;;;;;;71.28;14.02;;;;;;;-2.20;84.92;97311.50;5302527;27;20143;-77
2024/01/17 02:07:34;;;;;;;85.05;15.13;;;;;;;-2.38;84.78;97319.16;5302304;27;20425;-77
2024/01/17 02:10:02;;;;;;;96.82;15.93;;;;;;;-2.49;85.26;97316.66;5283089;27;20431;-77
2024/01/17 02:12:31;;;;;;;81.90;15.60;;;;;;;-2.36;84.90;97312.41;5302355;27;20118;-77
2024/01/17 02:15:00;;;;;;;110.57;16.95;;;;;;;-2.44;84.93;97309.09;5282850;27;20122;-76
2024/01/17 02:17:29;;;;;;;51.28;14.02;;;;;;;-1.90;82.47;97305.47;5302403;27;20061;-77
2024/01/17 02:19:57;;;;;;;107.63;16.83;;;;;;;-2.11;82.87;97315.69;5283273;27;20076;-77
2024/01/17 02:22:26;;;;;;;68.95;15.60;;;;;;;-2.28;83.83;97317.44;5283077;27;20119;-78
2024/01/17 02:24:54;;;;;;;81.45;15.07;;;;;;;-2.21;83.47;97322.47;5302349;27;20049;-77
2024/01/17 02:27:23;;;;;;;70.28;14.32;;;;;;;-2.11;82.93;97305.56;5301934;27;20120;-78
2024/01/17 02:29:52;;;;;;;50.33;14.52;;;;;;;-1.68;81.90;97303.66;5302273;27;20068;-78
2024/01/17 02:32:21;;;;;;;54.10;14.98;;;;;;;-1.63;80.45;97299.38;5302513;27;20061;-77
2024/01/17 02:34:50;;;;;;;69.55;15.27;;;;;;;-1.52;79.86;97300.16;5283080;27;20049;-78
2024/01/17 02:37:20;;;;;;;63.63;13.88;;;;;;;-1.70;80.96;97297.78;5283388;27;20072;-78
2024/01/17 02:39:50;;;;;;;64.05;15.15;;;;;;;-1.55;79.24;97296.81;5302363;27;20083;-77
2024/01/17 02:42:18;;;;;;;80.32;15.32;;;;;;;-1.81;80.71;97286.84;5301938;27;20068;-77
2024/01/17 02:44:46;;;;;;;63.17;14.70;;;;;;;-1.79;80.93;97280.13;5302562;27;20087;-77
2024/01/17 02:47:14;;;;;;;39.80;13.45;;;;;;;-1.89;80.96;97284.41;5302167;27;20064;-78
2024/01/17 02:49:42;;;;;;;76.18;15.35;;;;;;;-1.67;80.47;97279.19;5302001;27;20110;-77
2024/01/17 02:52:11;;;;;;;108.70;15.18;;;;;;;-1.52;79.17;97258.84;5302366;27;20066;-77
2024/01/17 02:54:39;;;;;;;75.72;14.98;;;;;;;-1.87;81.01;97254.03;5302469;27;20046;-77
2024/01/17 02:57:09;;;;;;;58.92;15.23;;;;;;;-1.84;80.29;97256.53;5301620;27;20072;-78
2024/01/17 02:59:37;;;;;;;72.05;15.05;;;;;;;-1.82;80.06;97243.03;5302603;27;20080;-78
2024/01/17 03:02:05;;;;;;;82.15;14.73;;;;;;;-1.83;79.94;97241.34;5302391;27;20103;-78
2024/01/17 03:04:32;;;;;;;61.80;15.10;;;;;;;-1.30;77.86;97236.72;5301516;27;20053;-78
2024/01/17 03:07:00;;;;;;;75.87;15.35;;;;;;;-1.90;78.90;97238.91;5302225;27;20057;-78
2024/01/17 03:09:29;;;;;;;68.43;15.38;;;;;;;-1.98;79.24;97221.25;5283044;27;20062;-78
2024/01/17 03:11:58;;;;;;;76.93;15.13;;;;;;;-2.04;79.78;97203.56;5302328;27;20067;-78
2024/01/17 03:14:26;;;;;;;91.60;15.32;;;;;;;-2.55;82.50;97209.75;5302454;27;20436;-78
2024/01/17 03:16:54;;;;;;;67.90;14.48;;;;;;;-3.15;83.91;97214.16;5301741;27;20065;-78
2024/01/17 03:19:22;;;;;;;53.83;14.32;;;;;;;-2.45;82.30;97236.63;5302309;27;20064;-77
2024/01/17 03:21:51;;;;;;;51.35;14.10;;;;;;;-2.23;80.94;97234.84;5302279;27;20111;-77
2024/01/17 03:24:20;;;;;;;50.00;15.10;;;;;;;-2.50;81.78;97238.38;5301995;27;20045;-78
2024/01/17 03:26:47;;;;;;;57.25;14.82;;;;;;;-2.26;79.17;97225.59;5302170;27;20118;-78
2024/01/17 03:29:17;;;;;;;71.57;16.15;;;;;;;-2.72;80.40;97220.78;5302453;27;20420;-78
2024/01/17 03:31:47;;;;;;;53.55;15.20;;;;;;;-2.99;82.76;97218.31;5301715;27;20438;-78
2024/01/17 03:34:14;;;;;;;53.33;15.27;;;;;;;-2.52;81.54;97202.19;5302245;27;20055;-78
2024/01/17 03:36:44;;;;;;;41.88;14.18;;;;;;;-2.79;81.54;97187.97;5302115;27;20065;-78
2024/01/17 03:39:11;;;;;;;54.10;14.82;;;;;;;-2.19;79.46;97196.09;5302051;27;20107;-78
2024/01/17 03:41:39;;;;;;;42.05;14.70;;;;;;;-1.93;76.55;97194.22;5302215;27;20054;-78
2024/01/17 03:44:08;;;;;;;45.12;15.45;;;;;;;-2.47;78.88;97188.66;5302215;27;20124;-78
2024/01/17 03:46:36;;;;;;;49.85;13.77;;;;;;;-2.49;78.71;97192.03;5301686;27;20073;-77
2024/01/17 03:49:04;;;;;;;42.17;15.73;;;;;;;-2.19;76.73;97188.50;5302192;27;20093;-77
2024/01/17 03:51:32;;;;;;;50.33;13.48;;;;;;;-2.55;78.79;97199.62;5301395;27;20363;-78
2024/01/17 03:54:00;;;;;;;56.92;14.80;;;;;;;-2.41;77.84;97198.75;5283085;27;20386;-77
2024/01/17 03:56:29;;;;;;;45.05;13.60;;;;;;;-2.55;78.21;97195.47;5282811;27;20471;-77
2024/01/17 03:58:57;;;;;;;47.95;13.85;;;;;;;-2.25;77.13;97201.19;5301958;27;20071;-77
2024/01/17 04:01:25;;;;;;;53.67;15.10;;;;;;;-2.36;77.73;97188.59;5302033;27;20072;-77
2024/01/17 04:03:54;;;;;;;54.15;14.52;;;;;;;-2.38;77.75;97188.63;5302069;27;20064;-77
2024/01/17 04:06:22;;;;;;;68.82;15.43;;;;;;;-2.39;78.14;97181.87;5301688;27;20069;-78
2024/01/17 04:08:50;;;;;;;44.58;13.45;;;;;;;-2.50;79.50;97167.63;5302258;27;20049;-77
2024/01/17 04:11:18;;;;;;;59.55;14.30;;;;;;;-2.51;78.83;97174.38;5302109;27;20056;-77
2024/01/17 04:13:47;;;;;;;49.08;14.70;;;;;;;-2.28;77.72;97169.19;5301791;27;20420;-78
2024/01/17 04:16:15;;;;;;;67.55;15.27;;;;;;;-2.38;77.88;97167.56;5301802;27;20124;-77
2024/01/17 04:18:44;;;;;;;53.30;14.00;;;;;;;-3.11;81.38;97153.59;5282684;27;20084;-77
2024/01/17 04:21:18;;;;;;;61.05;14.50;;;;;;;-2.87;81.07;97147.62;5291219;27;278249;-78
2024/01/17 04:23:47;;;;;;;70.28;15.23;;;;;;;-2.52;79.83;97156.72;5302177;27;20099;-78
2024/01/17 04:26:24;;;;;;;57.45;14.48;;;;;;;-2.77;82.00;97158.50;5302273;27;20111;-77
2024/01/17 04:28:53;;;;;;;47.42;14.75;;;;;;;-2.50;80.47;97155.00;5301738;27;20065;-78
2024/01/17 04:31:24;;;;;;;91.35;15.23;;;;;;;-2.38;80.15;97155.78;5301939;27;20075;-78
2024/01/17 04:33:52;;;;;;;86.80;14.20;;;;;;;-2.32;80.09;97157.44;5301877;27;20640;-78
2024/01/17 04:36:22;;;;;;;110.22;17.87;;;;;;;-2.23;79.92;97156.50;5301901;27;20061;-78
2024/01/17 04:38:50;;;;;;;112.82;17.45;;;;;;;-2.33;80.21;97154.06;5282820;27;20073;-77
2024/01/17 04:41:18;;;;;;;69.15;15.57;;;;;;;-2.24;79.87;97152.31;5301530;27;20124;-78
2024/01/17 04:43:45;;;;;;;93.00;16.27;;;;;;;-2.19;79.72;97132.91;5302132;27;20360;-78
2024/01/17 04:46:15;;;;;;;76.47;17.10;;;;;;;-2.25;80.08;97143.91;5301703;27;20069;-78
2024/01/17 04:48:45;;;;;;;134.93;18.37;;;;;;;-2.20;79.81;97127.03;5301566;27;20077;-78
2024/01/17 04:51:13;;;;;;;114.12;15.80;;;;;;;-2.23;80.08;97126.19;5301637;27;20053;-78
2024/01/17 04:53:42;;;;;;;79.80;15.98;;;;;;;-1.75;78.31;97130.03;5301965;27;20120;-78
2024/01/17 04:56:13;;;;;;;93.80;16.60;;;;;;;-1.90;78.67;97120.91;5301404;27;20061;-78
2024/01/17 04:58:40;;;;;;;84.72;15.68;;;;;;;-2.04;78.71;97108.34;5302158;27;20067;-77
2024/01/17 05:01:10;;;;;;;68.03;16.58;;;;;;;-1.97;79.29;97115.91;5282327;27;20061;-77
2024/01/17 05:03:41;;;;;;;69.43;15.75;;;;;;;-1.67;77.72;97120.69;5301627;27;20459;-78
2024/01/17 05:06:10;;;;;;;72.82;15.23;;;;;;;-3.06;83.38;97109.00;5301836;27;20070;-78
2024/01/17 05:08:39;;;;;;;49.60;17.25;;;;;;;-3.73;87.74;97119.25;5282585;27;20079;-78
2024/01/17 05:11:07;;;;;;;53.83;16.52;;;;;;;-2.68;85.00;97121.41;5301757;27;20108;-77
2024/01/17 05:13:37;;;;;;;76.80;15.55;;;;;;;-2.45;84.33;97121.28;5301772;27;20067;-77
2024/01/17 05:16:06;;;;;;;52.08;15.13;;;;;;;-2.45;84.25;97115.38;5282212;27;20080;-77
2024/01/17 05:18:35;;;;;;;64.72;16.42;;;;;;;-2.17;82.44;97098.34;5301981;27;20048;-77
2024/01/17 05:21:04;;;;;;;62.30;16.12;;;;;;;-2.30;83.75;97099.31;5301757;27;20067;-77
2024/01/17 05:23:33;;;;;;;66.68;16.23;;;;;;;-3.02;87.60;97093.00;5301428;27;20060;-77
2024/01/17 05:26:01;;;;;;;47.30;16.08;;;;;;;-3.14;89.65;97090.53;5301782;27;20057;-77
2024/01/17 05:28:30;;;;;;;44.35;17.60;;;;;;;-3.36;92.46;97094.81;5301690;27;20080;-77
2024/01/17 05:30:59;;;;;;;47.60;16.67;;;;;;;-2.91;89.04;97086.19;5301213;27;20112;-78
2024/01/17 05:33:28;;;;;;;42.60;16.05;;;;;;;-2.76;89.32;97097.09;5301873;27;20049;-78
2024/01/17 05:35:56;;;;;;;38.47;16.02;;;;;;;-2.27;87.38;97101.81;5301531;27;20081;-78
2024/01/17 05:38:27;;;;;;;46.00;17.17;;;;;;;-2.91;89.07;97108.91;5301382;27;20053;-78
2024/01/17 05:40:54;;;;;;;44.22;15.50;;;;;;;-2.53;89.58;97102.00;5301602;27;20087;-77
2024/01/17 05:43:22;;;;;;;45.40;16.08;;;;;;;-2.85;91.19;97099.66;5301793;27;20060;-77
2024/01/17 05:45:50;;;;;;;45.80;17.50;;;;;;;-2.89;92.00;97098.81;5301138;27;20091;-77
2024/01/17 05:48:17;;;;;;;46.58;16.65;;;;;;;-3.07;94.64;97102.28;5301931;27;20060;-77
2024/01/17 05:50:46;;;;;;;55.38;16.37;;;;;;;-2.89;93.42;97101.34;5301031;27;20120;-77
2024/01/17 05:53:14;;;;;;;50.10;17.33;;;;;;;-2.98;95.20;97102.25;5301740;27;20052;-77
2024/01/17 05:55:42;;;;;;;45.03;17.92;;;;;;;-3.46;98.23;97099.88;5301371;27;20122;-77
2024/01/17 05:58:10;;;;;;;53.60;17.55;;;;;;;-3.77;100.00;97099.94;5282053;27;20072;-78
2024/01/17 06:00:40;;;;;;;51.78;19.17;;;;;;;-2.92;97.37;97096.31;5301283;27;20125;-78
2024/01/17 06:03:09;;;;;;;45.08;15.85;;;;;;;-2.73;97.43;97100.41;5301896;27;20558;-78
2024/01/17 06:05:37;;;;;;;50.22;18.83;;;;;;;-3.26;98.01;97093.09;5301157;27;20100;-78
2024/01/17 06:08:06;;;;;;;58.03;19.65;;;;;;;-2.83;98.15;97092.91;5282320;27;20060;-78
2024/01/17 06:10:37;;;;;;;58.25;18.95;;;;;;;-2.74;97.41;97093.69;5301352;27;20454;-78
2024/01/17 06:13:08;;;;;;;47.83;16.65;;;;;;;-2.27;95.18;97091.69;5282431;27;20099;-78
2024/01/17 06:15:35;;;;;;;56.63;19.80;;;;;;;-2.53;96.90;97087.69;5282367;27;20464;-77
2024/01/17 06:18:05;;;;;;;55.92;18.95;;;;;;;-2.53;98.72;97094.41;5301489;27;20068;-77
2024/01/17 06:20:33;;;;;;;59.50;19.90;;;;;;;-2.11;96.61;97091.59;5301061;27;20057;-78
2024/01/17 06:23:01;;;;;;;59.85;20.27;;;;;;;-2.02;96.32;97093.19;5301591;27;20097;-78
2024/01/17 06:25:30;;;;;;;55.72;19.77;;;;;;;-1.64;93.56;97095.38;5301293;27;20065;-78
2024/01/17 06:27:58;;;;;;;61.33;21.05;;;;;;;-1.43;92.68;97089.25;5281826;27;20057;-78
2024/01/17 06:30:28;;;;;;;66.25;20.95;;;;;;;-1.59;91.69;97093.66;5301213;27;20076;-77
2024/01/17 06:32:55;;;;;;;63.85;21.98;;;;;;;-0.85;88.94;97098.69;5301167;27;20060;-78
2024/01/17 06:35:23;;;;;;;60.35;19.55;;;;;;;-0.81;87.63;97110.47;5301435;27;20573;-78
2024/01/17 06:37:50;;;;;;;65.40;22.10;;;;;;;-0.98;89.04;97097.16;5301324;27;20091;-78
2024/01/17 06:40:18;;;;;;;60.30;21.65;;;;;;;-1.07;89.35;97098.09;5302022;27;20061;-78
2024/01/17 06:42:46;;;;;;;65.10;21.10;;;;;;;-0.84;88.42;97097.00;5302436;27;20067;-77
2024/01/17 06:45:14;;;;;;;60.65;22.42;;;;;;;-1.15;89.59;97094.00;5302395;27;20076;-77
2024/01/17 06:47:44;;;;;;;65.18;21.62;;;;;;;-0.70;88.08;97097.66;5302037;27;20067;-78
2024/01/17 06:50:14;;;;;;;63.87;21.87;;;;;;;-0.49;86.64;97102.44;5301787;27;20050;-78
2024/01/17 06:52:41;;;;;;;56.85;20.83;;;;;;;-0.49;86.16;97099.88;5283231;27;20095;-78
2024/01/17 06:55:10;;;;;;;56.63;21.15;;;;;;;-0.39;85.78;97087.94;5301720;27;20069;-78
2024/01/17 06:57:43;;;;;;;58.40;21.12;;;;;;;-0.65;86.64;97084.03;5302224;27;20136;-79
2024/01/17 07:00:13;;;;;;;56.88;21.37;;;;;;;-0.33;85.73;97091.19;5302305;27;20099;-79
2024/01/17 07:02:42;;;;;;;58.13;21.25;;;;;;;0.10;84.37;97092.22;5302137;27;20091;-79
2024/01/17 07:05:10;;;;;;;107.85;36.20;;;;;;;-0.25;84.18;97078.41;5302264;27;20071;-79
2024/01/17 07:07:38;;;;;;;84.75;28.12;;;;;;;-0.27;85.91;97072.53;5302269;27;20541;-79
2024/01/17 07:10:08;;;;;;;76.85;26.48;;;;;;;0.58;83.09;97065.97;5302096;27;20053;-79
2024/01/17 07:12:35;;;;;;;85.05;28.17;;;;;;;-0.09;85.03;97063.81;5302146;27;20133;-79
2024/01/17 07:15:03;;;;;;;82.60;29.95;;;;;;;0.34;85.10;97061.38;5301829;27;20065;-80
2024/01/17 07:17:31;;;;;;;73.85;27.60;;;;;;;1.10;80.55;97056.50;5302201;27;20067;-79
2024/01/17 07:19:59;;;;;;;71.93;28.92;;;;;;;0.97;81.62;97050.84;5301662;27;20049;-79
2024/01/17 07:22:54;;;;;;;86.20;31.52;;;;;;;1.02;82.47;97045.66;5314532;27;20119;-79
2024/01/17 07:37:24;;;;;;;118.28;37.65;;;;;;;-0.24;90.89;97048.81;5297512;26;20056;-77
2024/01/17 07:39:52;;;;;;;84.90;31.17;;;;;;;0.78;84.96;97035.13;5302071;27;20060;-78
2024/01/17 07:42:22;;;;;;;68.18;25.92;;;;;;;0.92;84.02;97041.63;5269614;27;20536;-80
2024/01/17 07:44:55;;;;;;;70.47;25.90;;;;;;;0.82;85.29;97040.97;5301951;27;20056;-80
2024/01/17 07:47:23;;;;;;;64.60;23.33;;;;;;;0.68;84.16;97037.88;5301811;27;20065;-80
2024/01/17 07:49:51;;;;;;;57.67;21.27;;;;;;;0.50;85.27;97039.06;5302180;27;20092;-81
2024/01/17 07:52:19;;;;;;;58.35;21.42;;;;;;;-0.08;87.50;97038.41;5300942;27;20336;-79
2024/01/17 07:54:49;;;;;;;53.60;21.15;;;;;;;-0.02;88.08;97030.69;5301952;27;20065;-80
2024/01/17 07:57:18;;;;;;;56.97;21.00;;;;;;;0.28;87.62;97026.78;5301343;27;20058;-82
2024/01/17 07:59:47;;;;;;;52.53;19.42;;;;;;;0.46;86.86;97022.22;5283016;27;20060;-82
2024/01/17 08:02:17;;;;;;;51.90;17.73;;;;;;;0.55;87.51;97017.81;5296755;27;20073;-81
2024/01/17 08:04:45;;;;;;;39.83;16.48;;;;;;;1.45;83.02;97005.72;5301621;27;20061;-81
2024/01/17 08:07:13;;;;;;;37.22;15.32;;;;;;;0.12;91.18;97012.72;5301811;27;20052;-80
2024/01/17 08:09:42;;;;;;;30.00;12.75;;;;;;;0.47;89.93;97012.06;5302044;27;20086;-82
2024/01/17 08:12:19;;;;;;;82.65;30.80;;;;;;;0.88;87.87;97017.16;5296929;27;20095;-84
2024/01/17 08:15:08;;;;;;;61.88;23.42;;;;;;;0.47;89.38;97016.28;5302126;27;20416;-86
2024/01/17 08:17:50;;;;;;;49.95;20.30;;;;;;;-0.22;89.25;96969.34;5302042;27;20347;-86
2024/01/17 08:21:00;;;;;;;;;;;;;;;;;;;;;
2024/01/17 08:23:45;;;;;;;55.83;22.27;;;;;;;-0.52;94.19;97000.28;5260319;27;20553;-86
2024/01/17 08:26:35;;;;;;;49.05;20.75;;;;;;;-0.22;91.86;97002.28;5260957;27;20108;-84
2024/01/17 08:29:16;;;;;;;45.72;18.15;;;;;;;-0.37;92.62;96992.44;5280188;27;20121;-84
2024/01/17 08:31:44;;;;;;;42.67;16.52;;;;;;;-0.46;94.63;97003.53;5279387;27;20132;-84
2024/01/17 08:34:20;;;;;;;42.75;18.75;;;;;;;-0.83;96.57;96987.25;5260671;27;20048;-84
2024/01/17 08:37:14;;;;;;;48.47;18.60;;;;;;;-1.16;100.00;96989.41;5279707;27;20083;-84
2024/01/17 08:40:44;;;;;;;46.95;18.52;;;;;;;-1.35;100.00;96950.84;5261512;27;20066;-83
2024/01/17 08:43:39;;;;;;;51.37;19.17;;;;;;;-0.91;100.00;96977.22;5280185;27;20072;-85
2024/01/17 08:46:14;;;;;;;48.60;20.08;;;;;;;-1.22;100.00;96977.63;5270925;27;20217;-82
2024/01/17 08:48:42;;;;;;;37.22;16.33;;;;;;;-0.85;100.00;96976.28;5255792;27;20063;-81
2024/01/17 08:51:11;;;;;;;43.50;17.62;;;;;;;-0.81;100.00;96960.19;5255274;27;20066;-79
2024/01/17 08:53:41;;;;;;;42.25;16.48;;;;;;;0.03;94.99;96966.41;5255502;27;20057;-78
2024/01/17 08:56:21;;;;;;;43.85;17.30;;;;;;;-0.36;97.45;96951.84;5263135;27;20085;-81
2024/01/17 08:58:49;;;;;;;44.90;17.48;;;;;;;-0.36;98.23;96941.72;5268973;27;20077;-79
2024/01/17 09:01:17;;;;;;;41.83;16.83;;;;;;;-0.43;98.28;96939.28;5262273;27;20069;-78
2024/01/17 09:03:46;;;;;;;37.30;16.65;;;;;;;-0.43;98.30;96930.00;5257495;27;20085;-79
2024/01/17 09:06:14;;;;;;;68.43;26.02;;;;;;;0.57;94.85;96941.62;5255392;27;20056;-79
2024/01/17 09:08:44;;;;;;;52.40;23.27;;;;;;;0.97;90.60;96930.63;5255381;27;20081;-78
2024/01/17 09:11:13;;;;;;;48.90;20.48;;;;;;;0.99;90.95;96939.03;5229300;27;20128;-81
2024/01/17 09:13:42;;;;;;;69.37;26.83;;;;;;;1.38;88.35;96929.63;5255642;27;20088;-78
2024/01/17 09:16:10;;;;;;;43.03;17.55;;;;;;;1.86;87.42;96932.66;5257438;27;20065;-79
2024/01/17 09:18:40;;;;;;;48.92;19.02;;;;;;;1.49;87.68;96937.87;5240529;27;20042;-79
2024/01/17 09:47:08;;;;;;;33.83;14.55;;;;;;;1.05;88.88;96927.00;5279588;27;20104;-79
2024/01/17 09:49:36;;;;;;;29.40;13.13;;;;;;;0.68;89.95;96918.56;5260468;27;20077;-79
2024/01/17 09:52:05;;;;;;;38.47;16.83;;;;;;;0.69;91.22;96916.00;5284938;27;20125;-80
2024/01/17 09:54:40;;;;;;;36.60;14.77;;;;;;;0.65;92.12;96924.56;5302458;27;20021;-80
2024/01/17 09:57:14;;;;;;;39.42;16.05;;;;;;;0.86;90.31;96916.47;5302657;27;20057;-80
2024/01/17 09:59:48;;;;;;;37.38;16.20;;;;;;;0.45;94.40;96904.66;5284267;27;20061;-80
2024/01/17 10:23:16;;;;;;;37.53;16.75;;;;;;;1.04;90.02;96853.41;5327254;27;20114;-81
2024/01/17 10:25:45;;;;;;;39.33;17.83;;;;;;;1.57;89.93;96844.41;5325209;26;20063;-79
2024/01/17 10:28:15;;;;;;;36.22;16.10;;;;;;;1.59;88.11;96834.19;5328643;27;20114;-79
2024/01/17 10:30:44;;;;;;;41.90;17.00;;;;;;;1.62;89.34;96840.06;5330498;27;20064;-79
2024/01/17 10:39:24;;;;;;;42.70;17.37;;;;;;;1.93;86.27;96814.63;5324251;26;20505;-79
2024/01/17 10:41:54;;;;;;;39.55;17.10;;;;;;;1.90;87.15;96808.78;5324439;27;20115;-79
2024/01/17 10:44:22;;;;;;;36.38;17.08;;;;;;;1.81;87.21;96801.41;5332142;27;20071;-78
2024/01/17 10:46:53;;;;;;;40.12;17.55;;;;;;;1.30;90.77;96802.78;5331550;27;20025;-79
2024/01/17 10:49:21;;;;;;;37.03;16.67;;;;;;;1.28;92.59;96786.75;5324345;27;20053;-79
2024/01/17 10:52:13;;;;;;;38.53;19.23;;;;;;;1.80;91.13;96792.09;5305384;27;20061;-79
2024/01/17 10:54:46;;;;;;;41.67;17.70;;;;;;;1.63;92.42;96773.06;5305849;27;20064;-79
2024/01/17 10:57:15;;;;;;;42.20;18.30;;;;;;;2.37;88.75;96766.69;5324130;27;20049;-79
2024/01/17 10:59:48;;;;;;;53.25;21.75;;;;;;;2.32;87.48;96751.53;5324657;27;20075;-80
2024/01/17 11:02:21;;;;;;;45.65;20.52;;;;;;;2.35;85.48;96749.81;5324695;27;20464;-80
2024/01/17 11:04:55;;;;;;;49.65;20.45;;;;;;;2.91;83.26;96740.34;5326086;27;20110;-81
2024/01/17 11:07:24;;;;;;;41.03;18.75;;;;;;;2.73;82.77;96738.37;5308510;27;20051;-80
2024/01/17 11:09:53;;;;;;;38.30;17.33;;;;;;;2.43;85.31;96730.84;5325326;27;20060;-80
2024/01/17 11:12:21;;;;;;;46.60;20.85;;;;;;;3.06;81.07;96726.25;5306113;27;20144;-81
2024/01/17 11:14:51;;;;;;;40.95;17.70;;;;;;;3.47;79.64;96719.72;5304939;27;20135;-80
2024/01/17 11:17:20;;;;;;;37.95;16.65;;;;;;;3.88;76.26;96709.72;5324335;27;20048;-82
2024/01/17 11:20:07;;;;;;;34.10;15.77;;;;;;;3.60;78.76;96694.59;5307002;27;20060;-81
2024/01/17 11:22:39;;;;;;;40.95;18.08;;;;;;;3.24;80.60;96692.47;5325289;27;20065;-78
2024/01/17 11:25:36;;;;;;;36.17;16.35;;;;;;;3.58;76.97;96688.72;5323910;27;20509;-79
2024/01/17 11:28:25;;;;;;;33.28;13.23;;;;;;;3.65;76.51;96690.16;5324170;27;20052;-78
2024/01/17 11:31:01;;;;;;;37.17;15.95;;;;;;;3.61;78.96;96683.50;5305479;27;20118;-79
2024/01/17 11:43:04;;;;;;;37.15;15.98;;;;;;;2.62;86.13;96647.06;5297844;27;20089;-79
2024/01/17 11:52:35;;;;;;;36.58;17.25;;;;;;;2.11;89.13;96606.31;5289949;27;20068;-79
2024/01/17 11:58:18;;;;;;;32.05;14.52;;;;;;;2.26;90.66;96593.13;5301889;27;20374;-78
2024/01/17 12:10:31;;;;;;;45.80;16.52;;;;;;;2.50;88.58;96583.81;5302039;27;20106;-78
2024/01/17 12:13:00;;;;;;;43.38;18.80;;;;;;;2.37;89.22;96578.31;5302284;27;20061;-77
2024/01/17 12:15:28;;;;;;;50.78;21.17;;;;;;;2.54;88.69;96575.19;5302056;27;20049;-77
2024/01/17 12:17:56;;;;;;;38.20;16.52;;;;;;;2.91;86.96;96564.56;5301720;27;20072;-77
2024/01/17 12:20:24;;;;;;;38.53;17.05;;;;;;;3.10;84.65;96559.62;5302175;27;20065;-76
2024/01/17 12:37:20;;;;;;;47.28;20.55;;;;;;;3.47;83.34;96538.66;5266612;27;20067;-76
2024/01/17 12:51:59;;;;;;;50.58;23.12;;;;;;;3.28;81.39;96523.22;5262249;27;20117;-78
2024/01/17 12:54:35;;;;;;;49.00;21.00;;;;;;;3.47;80.80;96506.34;5302821;27;20077;-79
2024/01/17 12:57:04;;;;;;;44.53;21.90;;;;;;;3.13;84.97;96513.62;5302139;27;20068;-80
2024/01/17 12:59:32;;;;;;;44.75;19.77;;;;;;;3.49;84.65;96506.28;5282567;27;20107;-80
2024/01/17 13:02:01;;;;;;;52.28;23.60;;;;;;;3.43;84.89;96499.72;5282847;27;20058;-80
2024/01/17 13:04:30;;;;;;;49.05;22.52;;;;;;;3.85;82.67;96498.91;5302003;27;20061;-79
2024/01/17 13:06:59;;;;;;;51.72;23.40;;;;;;;3.51;84.35;96493.47;5301685;27;20057;-80
2024/01/17 13:09:31;;;;;;;55.28;26.60;;;;;;;3.51;83.84;96488.37;5302232;27;20099;-79
2024/01/17 13:12:00;;;;;;;59.40;26.58;;;;;;;3.73;83.32;96489.19;5301870;27;20058;-80
2024/01/17 13:14:29;;;;;;;55.40;24.90;;;;;;;3.49;86.02;96485.88;5281511;27;20072;-80
2024/01/17 13:16:57;;;;;;;52.80;23.67;;;;;;;3.63;84.08;96472.59;5282232;27;20443;-79
2024/01/17 13:19:28;;;;;;;44.17;21.05;;;;;;;3.42;85.70;96474.28;5282817;27;20093;-78
2024/01/17 13:21:58;;;;;;;51.80;21.70;;;;;;;3.31;86.05;96473.88;5302250;27;20061;-79
2024/01/17 13:24:25;;;;;;;49.13;21.48;;;;;;;3.46;86.77;96480.91;5301747;27;20057;-81
2024/01/17 13:26:53;;;;;;;42.80;20.77;;;;;;;3.59;85.98;96471.87;5301728;27;20053;-80
2024/01/17 13:29:22;;;;;;;45.80;21.92;;;;;;;3.90;84.25;96486.75;5302036;27;20080;-80
2024/01/17 13:31:52;;;;;;;54.50;25.85;;;;;;;4.13;82.73;96487.53;5302709;27;20036;-79
2024/01/17 13:34:20;;;;;;;55.95;24.65;;;;;;;3.52;84.81;96472.19;5302508;27;20127;-80
2024/01/17 13:36:50;;;;;;;46.85;23.40;;;;;;;3.62;84.46;96481.97;5301356;27;20056;-77